createdAt,value
2018-03-03T00:01:49.865Z,94491.91
2018-03-03T00:04:17.849Z,94489.43
2018-03-03T00:06:45.487Z,94483.37
2018-03-03T00:09:13.095Z,94476.73
2018-03-03T00:11:40.704Z,94485.30
2018-03-03T00:14:08.339Z,94484.16
2018-03-03T00:16:36.012Z,94488.03
2018-03-03T00:19:03.647Z,94485.39
2018-03-03T00:21:31.243Z,94479.61
2018-03-03T00:23:58.835Z,94479.20
2018-03-03T00:26:26.498Z,94490.73
2018-03-03T00:28:54.080Z,94487.45
2018-03-03T00:31:21.652Z,94506.16
2018-03-03T00:33:49.217Z,94504.32
2018-03-03T00:36:16.794Z,94502.55
2018-03-03T00:38:44.454Z,94509.66
2018-03-03T00:41:12.085Z,94500.77
2018-03-03T00:43:39.679Z,94503.39
2018-03-03T00:46:07.249Z,94496.09
2018-03-03T00:48:34.842Z,94497.56
2018-03-03T00:51:02.683Z,94502.40
2018-03-03T00:53:30.267Z,94511.50
2018-03-03T00:55:57.869Z,94500.23
2018-03-03T00:58:25.458Z,94497.31
2018-03-03T01:00:53.042Z,94505.50
2018-03-03T01:03:20.679Z,94498.66
2018-03-03T01:05:48.418Z,94502.84
2018-03-03T01:08:16.028Z,94508.39
2018-03-03T01:10:43.601Z,94499.30
2018-03-03T01:13:14.926Z,94503.81
2018-03-03T01:15:42.549Z,94509.03
2018-03-03T01:18:10.617Z,94498.47
2018-03-03T01:20:38.190Z,94507.74
2018-03-03T01:23:05.947Z,94516.92
2018-03-03T01:25:33.609Z,94514.17
2018-03-03T01:28:01.185Z,94506.66
2018-03-03T01:30:29.094Z,94508.28
2018-03-03T01:32:56.706Z,94508.73
2018-03-03T01:35:24.950Z,94511.69
2018-03-03T01:37:52.717Z,94514.53
2018-03-03T01:40:20.306Z,94515.66
2018-03-03T01:42:47.864Z,94520.61
2018-03-03T01:45:15.509Z,94522.05
2018-03-03T01:47:43.110Z,94515.42
2018-03-03T01:50:10.709Z,94525.09
2018-03-03T01:52:38.280Z,94522.84
2018-03-03T01:55:06.080Z,94515.39
2018-03-03T01:57:33.873Z,94517.77
2018-03-03T02:00:01.481Z,94515.37
2018-03-03T02:02:29.041Z,94517.15
2018-03-03T02:04:56.613Z,94524.32
2018-03-03T02:07:24.213Z,94525.59
2018-03-03T02:09:51.923Z,94524.58
2018-03-03T02:12:19.575Z,94523.91
2018-03-03T02:14:47.128Z,94526.28
2018-03-03T02:17:14.837Z,94532.42
2018-03-03T02:19:42.813Z,94541.58
2018-03-03T02:22:10.620Z,94540.88
2018-03-03T02:24:38.307Z,94546.01
2018-03-03T02:27:06.476Z,94527.66
2018-03-03T02:29:34.129Z,94539.12
2018-03-03T02:32:01.724Z,94553.14
2018-03-03T02:34:29.282Z,94544.53
2018-03-03T02:36:57.101Z,94541.77
2018-03-03T02:39:24.784Z,94548.55
2018-03-03T02:41:52.491Z,94544.42
2018-03-03T02:44:20.087Z,94549.92
2018-03-03T02:46:47.652Z,94541.25
2018-03-03T02:49:15.236Z,94542.50
2018-03-03T02:51:42.811Z,94544.47
2018-03-03T02:54:10.550Z,94550.77
2018-03-03T02:56:38.116Z,94556.96
2018-03-03T02:59:05.738Z,94560.67
2018-03-03T03:01:33.331Z,94559.34
2018-03-03T03:04:01.257Z,94548.31
2018-03-03T03:06:28.841Z,94545.43
2018-03-03T03:08:56.449Z,94537.51
2018-03-03T03:11:27.629Z,94549.83
2018-03-03T03:13:55.258Z,94546.28
2018-03-03T03:16:23.032Z,94539.93
2018-03-03T03:18:50.629Z,94533.03
2018-03-03T03:21:19.818Z,94540.89
2018-03-03T03:23:47.772Z,94548.72
2018-03-03T03:26:15.614Z,94554.69
2018-03-03T03:28:43.189Z,94552.36
2018-03-03T03:31:10.916Z,94540.67
2018-03-03T03:33:39.540Z,94553.45
2018-03-03T03:36:07.351Z,94543.79
2018-03-03T03:38:35.215Z,94556.91
2018-03-03T03:41:04.348Z,94550.35
2018-03-03T03:43:32.374Z,94543.05
2018-03-03T03:46:01.702Z,94550.70
2018-03-03T03:48:29.687Z,94548.97
2018-03-03T03:50:57.273Z,94552.44
2018-03-03T03:53:25.414Z,94555.62
2018-03-03T03:55:53.689Z,94560.95
2018-03-03T03:58:21.520Z,94540.70
2018-03-03T04:00:49.129Z,94538.13
2018-03-03T04:03:16.804Z,94531.08
2018-03-03T04:05:44.624Z,94544.59
2018-03-03T04:08:12.539Z,94529.37
2018-03-03T04:10:40.160Z,94528.87
2018-03-03T04:13:09.415Z,94522.53
2018-03-03T04:15:37.149Z,94518.80
2018-03-03T04:18:04.964Z,94498.92
2018-03-03T04:20:32.595Z,94513.55
2018-03-03T04:23:00.225Z,94521.77
2018-03-03T04:25:28.025Z,94529.16
2018-03-03T04:27:55.655Z,94531.33
2018-03-03T04:30:23.647Z,94525.53
2018-03-03T04:32:51.240Z,94522.81
2018-03-03T04:35:18.955Z,94516.73
2018-03-03T04:37:46.554Z,94516.86
2018-03-03T04:40:14.142Z,94517.39
2018-03-03T04:42:41.716Z,94507.77
2018-03-03T04:45:09.596Z,94511.00
2018-03-03T04:47:38.009Z,94508.59
2018-03-03T04:50:05.667Z,94509.48
2018-03-03T04:52:33.312Z,94517.70
2018-03-03T04:55:00.942Z,94509.90
2018-03-03T04:57:29.921Z,94504.83
2018-03-03T05:00:02.115Z,94492.63
2018-03-03T05:02:44.620Z,94495.12
2018-03-03T05:08:34.000Z,94479.88
2018-03-03T05:11:01.650Z,94491.66
2018-03-03T05:16:21.207Z,94479.73
2018-03-03T05:21:54.591Z,94479.86
2018-03-03T05:27:32.326Z,94483.44
2018-03-03T05:30:06.383Z,94483.41
2018-03-03T05:32:39.607Z,94480.98
2018-03-03T05:35:12.812Z,94484.80
2018-03-03T05:37:46.070Z,94481.63
2018-03-03T05:40:19.276Z,94477.02
2018-03-03T05:45:56.957Z,94482.05
2018-03-03T05:51:35.922Z,94480.28
2018-03-03T05:54:19.337Z,94476.76
2018-03-03T05:56:52.400Z,94487.13
2018-03-03T06:02:35.856Z,94484.31
2018-03-03T06:05:03.846Z,94487.39
2018-03-03T06:07:34.768Z,94499.65
2018-03-03T06:13:00.531Z,94492.46
2018-03-03T06:15:28.109Z,94488.69
2018-03-03T06:17:56.757Z,94497.16
2018-03-03T06:20:24.393Z,94498.59
2018-03-03T06:22:52.005Z,94491.89
2018-03-03T06:25:20.169Z,94497.86
2018-03-03T06:27:48.144Z,94496.58
2018-03-03T06:30:15.724Z,94492.57
2018-03-03T06:32:43.307Z,94492.66
2018-03-03T06:35:11.974Z,94489.20
2018-03-03T06:37:39.545Z,94489.27
2018-03-03T06:40:07.098Z,94494.80
2018-03-03T06:42:34.679Z,94492.61
2018-03-03T06:45:02.382Z,94500.34
2018-03-03T06:47:31.512Z,94498.05
2018-03-03T06:49:59.329Z,94495.34
2018-03-03T06:52:28.928Z,94503.67
2018-03-03T06:54:56.508Z,94490.97
2018-03-03T06:57:24.490Z,94488.62
2018-03-03T06:59:52.060Z,94485.21
2018-03-03T07:02:20.749Z,94485.84
2018-03-03T07:04:50.426Z,94484.66
2018-03-03T07:07:18.495Z,94486.38
2018-03-03T07:09:48.010Z,94479.64
2018-03-03T07:12:15.824Z,94485.14
2018-03-03T07:17:45.368Z,94476.90
2018-03-03T07:20:12.977Z,94475.32
2018-03-03T07:22:44.800Z,94464.25
2018-03-03T07:25:12.520Z,94468.54
2018-03-03T07:27:40.349Z,94464.12
2018-03-03T07:30:08.044Z,94460.41
2018-03-03T07:32:40.371Z,94447.84
2018-03-03T07:35:08.036Z,94449.28
2018-03-03T07:37:38.529Z,94448.45
2018-03-03T07:40:06.123Z,94450.95
2018-03-03T07:42:33.680Z,94449.80
2018-03-03T07:45:01.299Z,94449.63
2018-03-03T07:47:29.387Z,94442.61
2018-03-03T07:49:57.025Z,94438.66
2018-03-03T07:52:24.650Z,94447.96
2018-03-03T07:54:54.943Z,94451.86
2018-03-03T07:57:22.629Z,94457.00
2018-03-03T07:59:50.228Z,94454.39
2018-03-03T08:02:17.828Z,94453.44
2018-03-03T08:04:45.425Z,94459.41
2018-03-03T08:07:13.349Z,94462.75
2018-03-03T08:09:40.971Z,94462.36
2018-03-03T08:12:08.547Z,94468.83
2018-03-03T08:14:36.168Z,94470.57
2018-03-03T08:17:03.799Z,94463.67
2018-03-03T08:19:35.287Z,94460.28
2018-03-03T08:22:02.873Z,94462.27
2018-03-03T08:24:30.490Z,94459.66
2018-03-03T08:26:58.057Z,94455.13
2018-03-03T08:29:26.668Z,94455.91
2018-03-03T08:31:54.321Z,94454.98
2018-03-03T08:34:24.089Z,94461.80
2018-03-03T08:36:51.706Z,94455.77
2018-03-03T08:39:20.991Z,94454.16
2018-03-03T08:41:48.610Z,94455.48
2018-03-03T08:44:16.300Z,94452.18
2018-03-03T08:46:43.891Z,94438.86
2018-03-03T08:49:13.020Z,94436.95
2018-03-03T08:51:40.980Z,94427.11
2018-03-03T08:54:08.665Z,94430.30
2018-03-03T08:56:36.246Z,94430.61
2018-03-03T08:59:03.898Z,94429.94
2018-03-03T09:01:31.500Z,94426.20
2018-03-03T09:03:59.082Z,94435.61
2018-03-03T09:06:26.716Z,94438.82
2018-03-03T09:08:54.309Z,94433.14
2018-03-03T09:11:21.897Z,94433.78
2018-03-03T09:13:49.499Z,94435.04
2018-03-03T09:16:17.065Z,94437.00
2018-03-03T09:18:44.647Z,94439.23
2018-03-03T09:21:12.635Z,94431.11
2018-03-03T09:23:40.211Z,94437.67
2018-03-03T09:26:07.798Z,94445.16
2018-03-03T09:28:35.363Z,94443.75
2018-03-03T09:31:03.023Z,94448.25
2018-03-03T09:33:31.059Z,94457.20
2018-03-03T09:35:58.668Z,94453.71
2018-03-03T09:38:27.906Z,94457.98
2018-03-03T09:40:55.492Z,94457.75
2018-03-03T09:43:23.300Z,94449.94
2018-03-03T09:45:50.968Z,94438.34
2018-03-03T09:48:18.549Z,94442.94
2018-03-03T09:50:46.133Z,94443.08
2018-03-03T09:53:14.031Z,94434.12
2018-03-03T09:55:44.231Z,94434.27
2018-03-03T09:58:11.814Z,94441.98
2018-03-03T10:00:39.456Z,94438.88
2018-03-03T10:03:07.283Z,94431.16
2018-03-03T10:05:35.371Z,94431.52
2018-03-03T10:08:03.240Z,94434.42
2018-03-03T10:10:32.836Z,94429.20
2018-03-03T10:13:00.463Z,94436.36
2018-03-03T10:15:28.051Z,94429.51
2018-03-03T10:17:55.637Z,94424.36
2018-03-03T10:20:23.382Z,94416.16
2018-03-03T10:22:51.067Z,94418.92
2018-03-03T10:25:18.970Z,94423.16
2018-03-03T10:27:46.753Z,94420.89
2018-03-03T10:30:14.332Z,94417.35
2018-03-03T10:32:41.928Z,94424.47
2018-03-03T10:35:10.608Z,94428.23
2018-03-03T10:37:38.321Z,94424.36
2018-03-03T10:40:05.972Z,94415.78
2018-03-03T10:42:33.568Z,94412.45
2018-03-03T10:45:01.275Z,94419.38
2018-03-03T10:47:29.477Z,94416.14
2018-03-03T10:49:57.680Z,94418.31
2018-03-03T10:52:26.366Z,94416.98
2018-03-03T10:54:54.000Z,94410.62
2018-03-03T10:57:21.608Z,94411.12
2018-03-03T10:59:49.216Z,94410.97
2018-03-03T11:02:17.049Z,94407.28
2018-03-03T11:04:44.700Z,94400.14
2018-03-03T11:07:12.336Z,94394.68
2018-03-03T11:09:44.248Z,94396.04
2018-03-03T11:12:12.339Z,94391.81
2018-03-03T11:14:41.422Z,94389.56
2018-03-03T11:17:09.008Z,94381.50
2018-03-03T11:19:38.479Z,94389.18
2018-03-03T11:22:06.162Z,94385.93
2018-03-03T11:24:36.308Z,94383.81
2018-03-03T11:27:04.664Z,94381.19
2018-03-03T11:29:36.286Z,94379.70
2018-03-03T11:32:03.887Z,94375.55
2018-03-03T11:34:31.478Z,94377.16
2018-03-03T11:37:05.387Z,94374.89
2018-03-03T11:39:32.977Z,94366.92
2018-03-03T11:42:01.579Z,94365.27
2018-03-03T11:44:29.191Z,94359.48
2018-03-03T11:46:56.878Z,94362.03
2018-03-03T11:49:26.492Z,94356.63
2018-03-03T11:51:55.524Z,94347.19
2018-03-03T11:54:23.648Z,94348.98
2018-03-03T11:56:51.743Z,94347.46
2018-03-03T11:59:19.704Z,94351.77
2018-03-03T12:01:48.613Z,94356.17
2018-03-03T12:04:18.908Z,94353.56
2018-03-03T12:06:46.677Z,94342.19
2018-03-03T12:09:14.581Z,94340.50
2018-03-03T12:11:42.241Z,94343.31
2018-03-03T12:14:09.953Z,94343.47
2018-03-03T12:16:37.510Z,94347.31
2018-03-03T12:19:05.167Z,94335.55
2018-03-03T12:21:32.901Z,94337.98
2018-03-03T12:24:00.500Z,94336.63
2018-03-03T12:26:28.136Z,94333.61
2018-03-03T12:28:56.009Z,94331.03
2018-03-03T12:31:24.848Z,94334.44
2018-03-03T12:33:52.571Z,94334.88
2018-03-03T12:36:41.448Z,94346.35
2018-03-03T12:39:09.473Z,94345.28
2018-03-03T12:41:37.527Z,94338.13
2018-03-03T12:44:05.123Z,94337.79
2018-03-03T12:46:32.723Z,94339.31
2018-03-03T12:49:00.353Z,94345.42
2018-03-03T12:51:27.926Z,94338.22
2018-03-03T12:53:55.521Z,94341.52
2018-03-03T12:56:23.142Z,94332.95
2018-03-03T12:58:50.914Z,94329.25
2018-03-03T13:01:18.549Z,94334.56
2018-03-03T13:03:48.287Z,94328.95
2018-03-03T13:06:16.807Z,94325.48
2018-03-03T13:08:44.407Z,94318.16
2018-03-03T13:11:12.910Z,94318.00
2018-03-03T13:13:40.748Z,94327.80
2018-03-03T13:16:08.350Z,94331.36
2018-03-03T13:21:19.797Z,94328.34
2018-03-03T13:23:51.637Z,94331.52
2018-03-03T13:26:19.738Z,94328.17
2018-03-03T13:28:53.917Z,94323.76
2018-03-03T13:31:23.625Z,94313.97
2018-03-03T13:33:51.712Z,94314.57
2018-03-03T13:36:20.059Z,94315.37
2018-03-03T13:38:48.155Z,94325.06
2018-03-03T13:41:16.037Z,94327.63
2018-03-03T13:43:44.161Z,94328.52
2018-03-03T13:46:12.501Z,94326.38
2018-03-03T13:48:40.336Z,94333.43
2018-03-03T13:51:09.019Z,94329.17
2018-03-03T13:53:37.429Z,94332.92
2018-03-03T13:56:05.598Z,94335.54
2018-03-03T13:58:33.570Z,94332.95
2018-03-03T14:01:01.799Z,94318.08
2018-03-03T14:03:31.717Z,94323.35
2018-03-03T14:05:59.453Z,94323.83
2018-03-03T14:08:29.496Z,94326.13
2018-03-03T14:10:57.105Z,94334.44
2018-03-03T14:13:26.543Z,94330.21
2018-03-03T14:15:54.090Z,94332.33
2018-03-03T14:18:23.098Z,94341.84
2018-03-03T14:20:50.805Z,94343.63
2018-03-03T14:23:19.055Z,94344.67
2018-03-03T14:25:46.721Z,94346.19
2018-03-03T14:28:14.473Z,94340.61
2018-03-03T14:30:42.041Z,94332.86
2018-03-03T14:33:10.398Z,94337.45
2018-03-03T14:35:39.667Z,94342.80
2018-03-03T14:38:07.247Z,94343.26
2018-03-03T14:40:34.941Z,94350.98
2018-03-03T14:43:02.738Z,94350.36
2018-03-03T14:45:30.350Z,94349.98
2018-03-03T14:47:57.975Z,94352.33
2018-03-03T14:50:25.560Z,94354.91
2018-03-03T14:52:53.137Z,94349.33
2018-03-03T14:55:22.663Z,94352.23
2018-03-03T14:57:50.823Z,94359.51
2018-03-03T15:00:18.445Z,94356.25
2018-03-03T15:02:47.014Z,94358.98
2018-03-03T15:05:17.713Z,94363.14
2018-03-03T15:07:48.274Z,94354.57
2018-03-03T15:10:15.865Z,94358.41
2018-03-03T15:12:47.946Z,94367.56
2018-03-03T15:15:15.644Z,94369.80
2018-03-03T15:17:47.735Z,94376.69
2018-03-03T15:20:17.611Z,94384.67
2018-03-03T15:22:46.552Z,94377.33
2018-03-03T15:25:14.780Z,94375.71
2018-03-03T15:27:42.460Z,94371.56
2018-03-03T15:30:10.055Z,94365.73
2018-03-03T15:32:37.921Z,94366.36
2018-03-03T15:35:06.218Z,94360.08
2018-03-03T15:37:35.682Z,94355.14
2018-03-03T15:40:14.961Z,94359.77
2018-03-03T15:42:50.218Z,94371.00
2018-03-03T15:45:35.666Z,94361.50
2018-03-03T15:48:18.301Z,94362.60
2018-03-03T15:50:48.857Z,94351.41
2018-03-03T15:53:26.659Z,94360.37
2018-03-03T15:55:55.237Z,94369.73
2018-03-03T15:58:22.851Z,94374.25
2018-03-03T16:00:50.483Z,94370.58
2018-03-03T16:03:18.148Z,94382.80
2018-03-03T16:05:45.701Z,94385.48
2018-03-03T16:08:13.297Z,94385.70
2018-03-03T16:10:40.939Z,94390.57
2018-03-03T16:13:09.559Z,94395.91
2018-03-03T16:15:37.680Z,94399.45
2018-03-03T16:18:05.785Z,94373.88
2018-03-03T16:20:35.081Z,94397.63
2018-03-03T16:23:02.716Z,94404.16
2018-03-03T16:25:30.360Z,94409.72
2018-03-03T16:27:58.021Z,94417.27
2018-03-03T16:30:26.695Z,94413.80
2018-03-03T16:32:54.365Z,94418.28
2018-03-03T16:35:22.579Z,94420.31
2018-03-03T16:37:50.193Z,94424.97
2018-03-03T16:40:17.878Z,94422.69
2018-03-03T16:42:45.483Z,94431.84
2018-03-03T16:45:14.153Z,94433.95
2018-03-03T16:47:41.709Z,94433.20
2018-03-03T16:50:09.309Z,94439.38
2018-03-03T16:52:36.907Z,94437.42
2018-03-03T16:55:04.546Z,94449.41
2018-03-03T16:57:32.158Z,94452.77
2018-03-03T16:59:59.701Z,94465.22
2018-03-03T17:02:27.809Z,94466.16
2018-03-03T17:04:55.414Z,94464.66
2018-03-03T17:07:23.673Z,94473.34
2018-03-03T17:09:51.264Z,94474.02
2018-03-03T17:12:18.833Z,94475.73
2018-03-03T17:14:46.491Z,94471.47
2018-03-03T17:17:14.758Z,94472.27
2018-03-03T17:19:42.363Z,94464.64
2018-03-03T17:22:10.010Z,94466.31
2018-03-03T17:24:37.600Z,94472.69
2018-03-03T17:27:05.616Z,94469.91
2018-03-03T17:29:33.291Z,94469.31
2018-03-03T17:32:00.874Z,94473.70
2018-03-03T17:34:28.458Z,94470.11
2018-03-03T17:36:56.053Z,94466.87
2018-03-03T17:39:23.638Z,94477.47
2018-03-03T17:41:51.247Z,94478.68
2018-03-03T17:44:19.180Z,94475.52
2018-03-03T17:46:47.211Z,94478.06
2018-03-03T17:49:14.829Z,94485.83
2018-03-03T17:51:42.403Z,94482.13
2018-03-03T17:54:10.170Z,94488.07
2018-03-03T17:56:37.751Z,94486.14
2018-03-03T17:59:05.332Z,94483.66
2018-03-03T18:01:32.963Z,94493.34
2018-03-03T18:04:00.574Z,94503.94
2018-03-03T18:06:28.180Z,94500.63
2018-03-03T18:08:55.819Z,94503.33
2018-03-03T18:11:24.687Z,94514.30
2018-03-03T18:13:55.242Z,94520.05
2018-03-03T18:16:22.854Z,94523.67
2018-03-03T18:18:50.447Z,94519.03
2018-03-03T18:21:19.134Z,94529.55
2018-03-03T18:23:46.881Z,94537.06
2018-03-03T18:26:14.489Z,94540.38
2018-03-03T18:28:42.066Z,94545.50
2018-03-03T18:31:11.576Z,94544.25
2018-03-03T18:33:39.185Z,94542.09
2018-03-03T18:36:06.962Z,94540.34
2018-03-03T18:38:34.594Z,94551.77
2018-03-03T18:41:02.253Z,94547.12
2018-03-03T18:43:31.519Z,94555.98
2018-03-03T18:45:59.098Z,94551.14
2018-03-03T18:48:26.705Z,94560.15
2018-03-03T18:50:54.527Z,94565.23
2018-03-03T18:53:27.314Z,94564.50
2018-03-03T18:55:55.010Z,94564.76
2018-03-03T18:58:22.603Z,94569.27
2018-03-03T19:00:50.372Z,94570.67
2018-03-03T19:06:09.574Z,94571.81
2018-03-03T19:08:37.206Z,94574.34
2018-03-03T19:11:12.523Z,94582.02
2018-03-03T19:13:40.114Z,94589.11
2018-03-03T19:16:07.744Z,94597.77
2018-03-03T19:18:35.317Z,94597.95
2018-03-03T19:21:08.912Z,94597.92
2018-03-03T19:23:36.506Z,94600.35
2018-03-03T19:26:14.118Z,94603.31
2018-03-03T19:28:43.167Z,94600.55
2018-03-03T19:31:11.275Z,94606.48
2018-03-03T19:33:39.780Z,94605.05
2018-03-03T19:36:09.400Z,94605.13
2018-03-03T19:38:37.891Z,94604.30
2018-03-03T19:41:05.693Z,94609.52
2018-03-03T19:43:33.482Z,94613.04
2018-03-03T19:46:01.107Z,94607.28
2018-03-03T19:48:28.751Z,94616.22
2018-03-03T19:50:56.370Z,94634.08
2018-03-03T19:53:23.969Z,94630.16
2018-03-03T19:55:51.557Z,94633.09
2018-03-03T19:58:19.288Z,94632.09
2018-03-03T20:00:46.866Z,94636.77
2018-03-03T20:03:14.485Z,94631.11
2018-03-03T20:05:42.133Z,94631.91
2018-03-03T20:08:09.838Z,94644.01
2018-03-03T20:10:37.410Z,94641.76
2018-03-03T20:13:05.569Z,94650.95
2018-03-03T20:15:33.185Z,94648.35
2018-03-03T20:18:00.862Z,94657.00
2018-03-03T20:20:28.493Z,94660.71
2018-03-03T20:22:56.136Z,94659.36
2018-03-03T20:25:24.700Z,94669.52
2018-03-03T20:27:52.303Z,94679.38
2018-03-03T20:30:19.948Z,94678.05
2018-03-03T20:32:47.465Z,94681.72
2018-03-03T20:35:15.167Z,94687.33
2018-03-03T20:37:42.751Z,94687.32
2018-03-03T20:40:10.469Z,94698.81
2018-03-03T20:42:38.060Z,94695.58
2018-03-03T20:45:05.840Z,94693.55
2018-03-03T20:47:35.165Z,94714.22
2018-03-03T20:50:02.763Z,94711.33
2018-03-03T20:52:30.349Z,94719.67
2018-03-03T20:54:57.965Z,94731.30
2018-03-03T20:57:26.547Z,94730.98
2018-03-03T20:59:54.154Z,94732.41
2018-03-03T21:02:22.668Z,94730.98
2018-03-03T21:04:50.240Z,94731.71
2018-03-03T21:07:18.038Z,94733.99
2018-03-03T21:09:45.629Z,94740.06
2018-03-03T21:12:20.233Z,94735.13
2018-03-03T21:14:48.002Z,94726.90
2018-03-03T21:17:15.773Z,94735.66
2018-03-03T21:19:43.430Z,94726.16
2018-03-03T21:22:11.178Z,94733.17
2018-03-03T21:24:38.821Z,94740.70
2018-03-03T21:27:07.633Z,94735.34
2018-03-03T21:29:35.436Z,94747.80
2018-03-03T21:32:03.114Z,94753.50
2018-03-03T21:34:30.693Z,94754.70
2018-03-03T21:36:58.268Z,94755.55
2018-03-03T21:39:26.439Z,94755.81
2018-03-03T21:41:54.140Z,94755.56
2018-03-03T21:44:22.867Z,94758.81
2018-03-03T21:46:50.741Z,94763.27
2018-03-03T21:49:18.456Z,94762.59
2018-03-03T21:51:47.143Z,94768.55
2018-03-03T21:54:15.952Z,94773.06
2018-03-03T21:56:43.584Z,94771.73
2018-03-03T21:59:11.256Z,94775.58
2018-03-03T22:01:38.884Z,94781.44
2018-03-03T22:04:07.126Z,94776.59
2018-03-03T22:06:36.250Z,94776.59
2018-03-03T22:09:06.825Z,94783.66
2018-03-03T22:11:37.592Z,94788.52
2018-03-03T22:14:05.598Z,94785.25
2018-03-03T22:16:33.922Z,94786.08
2018-03-03T22:19:01.891Z,94780.70
2018-03-03T22:21:30.606Z,94788.81
2018-03-03T22:23:58.204Z,94791.57
2018-03-03T22:26:25.827Z,94791.16
2018-03-03T22:28:53.427Z,94793.55
2018-03-03T22:31:21.501Z,94793.18
2018-03-03T22:33:49.134Z,94796.34
2018-03-03T22:36:16.708Z,94808.00
2018-03-03T22:38:44.280Z,94800.01
2018-03-03T22:41:12.842Z,94796.72
2018-03-03T22:43:40.442Z,94808.44
2018-03-03T22:46:08.332Z,94814.81
2018-03-03T22:48:35.951Z,94811.23
2018-03-03T22:51:03.702Z,94819.06
2018-03-03T22:55:58.494Z,94820.92
2018-03-03T22:58:26.078Z,94823.22
2018-03-03T23:00:53.645Z,94826.78
2018-03-03T23:03:21.884Z,94831.10
2018-03-03T23:08:39.687Z,94831.19
2018-03-03T23:11:07.622Z,94837.36
2018-03-03T23:13:35.262Z,94840.22
2018-03-03T23:16:02.863Z,94845.09
2018-03-03T23:18:31.811Z,94844.28
2018-03-03T23:20:59.597Z,94836.42
2018-03-03T23:23:27.221Z,94843.42
2018-03-03T23:25:54.819Z,94838.22
2018-03-03T23:28:24.644Z,94843.98
2018-03-03T23:30:52.293Z,94848.00
2018-03-03T23:33:19.871Z,94846.42
2018-03-03T23:35:47.467Z,94846.47
2018-03-03T23:38:16.353Z,94841.75
2018-03-03T23:40:46.652Z,94837.29
2018-03-03T23:43:17.930Z,94843.84
2018-03-03T23:45:46.026Z,94838.06
2018-03-03T23:48:13.858Z,94843.36
2018-03-03T23:50:41.504Z,94842.00
2018-03-03T23:53:09.356Z,94850.34
2018-03-03T23:55:37.318Z,94852.80
2018-03-03T23:58:04.917Z,94850.16
